createdAt,value
2022-09-06T00:01:23.474Z,100.00
2022-09-06T00:03:50.738Z,100.00
2022-09-06T00:06:20.134Z,100.00
2022-09-06T00:08:48.574Z,100.00
2022-09-06T00:11:17.260Z,100.00
2022-09-06T00:13:44.721Z,100.00
2022-09-06T00:16:14.807Z,100.00
2022-09-06T00:18:42.578Z,100.00
2022-09-06T00:21:28.857Z,100.00
2022-09-06T00:23:55.616Z,100.00
2022-09-06T00:26:23.494Z,100.00
2022-09-06T00:28:50.364Z,100.00
2022-09-06T00:31:20.285Z,100.00
2022-09-06T00:33:47.373Z,100.00
2022-09-06T00:36:14.317Z,100.00
2022-09-06T00:38:42.001Z,100.00
2022-09-06T00:41:10.584Z,100.00
2022-09-06T00:43:38.192Z,100.00
2022-09-06T00:46:07.401Z,100.00
2022-09-06T00:48:36.656Z,100.00
2022-09-06T00:51:08.384Z,100.00
2022-09-06T00:53:35.157Z,100.00
2022-09-06T00:56:02.257Z,100.00
2022-09-06T00:58:29.261Z,100.00
2022-09-06T01:00:56.059Z,100.00
2022-09-06T01:03:25.558Z,100.00
2022-09-06T01:06:17.271Z,100.00
2022-09-06T01:09:06.813Z,100.00
2022-09-06T01:11:51.771Z,100.00
2022-09-06T01:14:36.910Z,100.00
2022-09-06T01:17:43.690Z,100.00
2022-09-06T01:20:28.805Z,100.00
2022-09-06T01:23:22.496Z,100.00
2022-09-06T01:25:54.891Z,100.00
2022-09-06T01:28:33.336Z,100.00
2022-09-06T01:31:24.942Z,100.00
2022-09-06T01:34:11.735Z,100.00
2022-09-06T01:37:08.880Z,100.00
2022-09-06T01:39:37.167Z,100.00
2022-09-06T01:42:14.693Z,100.00
2022-09-06T01:44:45.893Z,100.00
2022-09-06T01:47:22.037Z,100.00
2022-09-06T01:50:07.311Z,100.00
2022-09-06T01:52:50.463Z,100.00
2022-09-06T01:55:30.967Z,100.00
2022-09-06T01:58:24.163Z,100.00
2022-09-06T02:01:03.289Z,100.00
2022-09-06T02:03:41.709Z,100.00
2022-09-06T02:06:20.309Z,100.00
2022-09-06T02:08:57.185Z,100.00
2022-09-06T02:11:26.633Z,100.00
2022-09-06T02:14:03.074Z,100.00
2022-09-06T02:16:32.800Z,100.00
2022-09-06T02:19:07.055Z,100.00
2022-09-06T02:21:40.338Z,100.00
2022-09-06T02:24:12.064Z,100.00
2022-09-06T02:26:43.617Z,100.00
2022-09-06T02:29:10.723Z,100.00
2022-09-06T02:31:52.969Z,100.00
2022-09-06T02:34:20.872Z,100.00
2022-09-06T02:36:48.331Z,100.00
2022-09-06T02:39:15.259Z,100.00
2022-09-06T02:41:45.366Z,100.00
2022-09-06T02:44:12.111Z,100.00
2022-09-06T02:46:38.784Z,100.00
2022-09-06T02:49:05.515Z,100.00
2022-09-06T02:51:39.633Z,100.00
2022-09-06T02:54:07.120Z,100.00
2022-09-06T02:56:36.473Z,100.00
2022-09-06T02:59:07.190Z,100.00
2022-09-06T03:01:34.484Z,100.00
2022-09-06T03:04:01.935Z,100.00
2022-09-06T03:06:28.771Z,100.00
2022-09-06T03:08:55.651Z,100.00
2022-09-06T03:11:22.567Z,100.00
2022-09-06T03:13:51.135Z,100.00
2022-09-06T03:16:18.366Z,100.00
2022-09-06T03:18:45.235Z,100.00
2022-09-06T03:21:12.120Z,100.00
2022-09-06T03:23:41.717Z,100.00
2022-09-06T03:26:08.591Z,100.00
2022-09-06T03:28:35.334Z,100.00
2022-09-06T03:31:02.073Z,100.00
2022-09-06T03:33:28.972Z,100.00
2022-09-06T03:36:01.519Z,100.00
2022-09-06T03:38:29.450Z,100.00
2022-09-06T03:40:56.481Z,100.00
2022-09-06T03:43:24.742Z,100.00
2022-09-06T03:45:54.345Z,100.00
2022-09-06T03:48:23.014Z,100.00
2022-09-06T03:50:52.537Z,100.00
2022-09-06T03:53:19.382Z,100.00
2022-09-06T03:55:48.055Z,100.00
2022-09-06T03:58:16.470Z,100.00
2022-09-06T04:00:43.400Z,100.00
2022-09-06T04:03:10.487Z,100.00
2022-09-06T04:05:37.355Z,100.00
2022-09-06T04:08:04.175Z,100.00
2022-09-06T04:10:30.856Z,100.00
2022-09-06T04:12:57.631Z,100.00
2022-09-06T04:15:24.370Z,100.00
2022-09-06T04:17:51.121Z,100.00
2022-09-06T04:20:17.971Z,100.00
2022-09-06T04:22:44.737Z,100.00
2022-09-06T04:25:13.815Z,100.00
2022-09-06T04:27:40.693Z,100.00
2022-09-06T04:30:08.359Z,100.00
2022-09-06T04:32:35.078Z,100.00
2022-09-06T04:35:01.853Z,100.00
2022-09-06T04:37:28.536Z,100.00
2022-09-06T04:39:55.613Z,100.00
2022-09-06T04:42:22.367Z,100.00
2022-09-06T04:44:49.063Z,100.00
2022-09-06T04:47:18.203Z,100.00
2022-09-06T04:49:46.023Z,100.00
2022-09-06T04:52:12.744Z,100.00
2022-09-06T04:54:39.493Z,100.00
2022-09-06T04:57:06.279Z,100.00
2022-09-06T04:59:33.156Z,100.00
2022-09-06T05:02:00.024Z,100.00
2022-09-06T05:04:26.849Z,100.00
2022-09-06T05:07:05.107Z,100.00
2022-09-06T05:09:33.167Z,100.00
2022-09-06T05:12:00.533Z,100.00
2022-09-06T05:14:28.247Z,100.00
2022-09-06T05:16:55.388Z,100.00
2022-09-06T05:19:22.191Z,100.00
2022-09-06T05:21:51.283Z,100.00
2022-09-06T05:24:18.137Z,100.00
2022-09-06T05:26:45.056Z,100.00
2022-09-06T05:29:11.931Z,100.00
2022-09-06T05:31:38.848Z,100.00
2022-09-06T05:34:05.991Z,100.00
2022-09-06T05:36:33.239Z,100.00
2022-09-06T05:39:00.035Z,100.00
2022-09-06T05:41:27.302Z,100.00
2022-09-06T05:43:54.217Z,100.00
2022-09-06T05:46:21.541Z,100.00
2022-09-06T05:49:04.731Z,100.00
2022-09-06T05:51:32.790Z,100.00
2022-09-06T05:53:59.734Z,100.00
2022-09-06T05:56:26.394Z,100.00
2022-09-06T05:58:53.085Z,100.00
2022-09-06T06:01:28.028Z,100.00
2022-09-06T06:03:57.004Z,100.00
2022-09-06T06:06:25.511Z,100.00
2022-09-06T06:08:52.209Z,100.00
2022-09-06T06:11:19.465Z,100.00
2022-09-06T06:13:46.240Z,100.00
2022-09-06T06:16:15.508Z,100.00
2022-09-06T06:18:42.655Z,100.00
2022-09-06T06:21:09.355Z,100.00
2022-09-06T06:23:36.220Z,100.00
2022-09-06T06:26:02.993Z,100.00
2022-09-06T06:28:29.754Z,100.00
2022-09-06T06:30:56.661Z,100.00
2022-09-06T06:33:23.363Z,100.00
2022-09-06T06:36:03.949Z,100.00
2022-09-06T06:38:35.763Z,100.00
2022-09-06T06:41:06.662Z,100.00
2022-09-06T06:43:37.880Z,100.00
2022-09-06T06:46:13.359Z,100.00
2022-09-06T06:48:41.437Z,100.00
2022-09-06T06:51:13.036Z,100.00
2022-09-06T06:53:39.996Z,100.00
2022-09-06T06:56:29.391Z,100.00
2022-09-06T06:58:58.106Z,100.00
2022-09-06T07:01:26.469Z,100.00
2022-09-06T07:03:54.417Z,100.00
2022-09-06T07:09:09.513Z,100.00
2022-09-06T07:11:36.219Z,100.00
2022-09-06T07:14:02.978Z,100.00
2022-09-06T07:16:30.029Z,100.00
2022-09-06T07:18:56.879Z,100.00
2022-09-06T07:21:42.226Z,100.00
2022-09-06T07:24:09.734Z,100.00
2022-09-06T07:26:38.915Z,100.00
2022-09-06T07:29:07.195Z,100.00
2022-09-06T07:34:22.004Z,100.00
2022-09-06T07:36:48.753Z,100.00
2022-09-06T07:39:15.534Z,100.00
2022-09-06T07:41:43.023Z,100.00
2022-09-06T07:44:09.907Z,100.00
2022-09-06T07:46:36.726Z,100.00
2022-09-06T07:49:06.732Z,100.00
2022-09-06T07:51:33.652Z,100.00
2022-09-06T07:54:34.677Z,100.00
2022-09-06T07:56:47.563Z,100.00
2022-09-06T07:59:14.807Z,100.00
2022-09-06T08:01:42.024Z,100.00
2022-09-06T08:04:12.715Z,100.00
2022-09-06T08:09:32.876Z,100.00
2022-09-06T08:11:59.763Z,100.00
2022-09-06T08:14:26.483Z,100.00
2022-09-06T08:16:53.195Z,100.00
2022-09-06T08:19:19.872Z,100.00
2022-09-06T08:21:46.593Z,100.00
2022-09-06T08:24:13.474Z,100.00
2022-09-06T08:26:43.214Z,100.00
2022-09-06T08:29:11.574Z,100.00
2022-09-06T08:31:40.984Z,100.00
2022-09-06T08:34:08.259Z,100.00
2022-09-06T08:36:35.968Z,100.00
2022-09-06T08:39:09.192Z,100.00
2022-09-06T08:41:57.328Z,100.00
2022-09-06T08:47:22.377Z,100.00
2022-09-06T08:49:54.760Z,100.00
2022-09-06T08:52:29.085Z,100.00
2022-09-06T08:55:20.553Z,100.00
2022-09-06T08:58:08.709Z,100.00
2022-09-06T09:00:37.127Z,100.00
2022-09-06T09:03:16.463Z,100.00
2022-09-06T09:05:48.147Z,100.00
2022-09-06T09:08:29.343Z,100.00
2022-09-06T09:11:07.584Z,100.00
2022-09-06T09:13:40.806Z,100.00
2022-09-06T09:16:07.780Z,98.29
2022-09-06T09:18:38.598Z,99.70
2022-09-06T09:21:05.674Z,97.61
2022-09-06T09:23:32.772Z,95.74
2022-09-06T09:26:04.886Z,98.71
2022-09-06T09:28:31.976Z,99.80
2022-09-06T09:30:58.963Z,95.95
2022-09-06T09:33:36.755Z,96.72
2022-09-06T09:36:09.190Z,89.17
2022-09-06T09:38:49.237Z,82.84
2022-09-06T09:41:33.687Z,82.74
2022-09-06T09:44:07.482Z,82.27
2022-09-06T09:46:36.467Z,79.42
2022-09-06T09:49:07.754Z,82.78
2022-09-06T09:51:46.609Z,80.27
2022-09-06T09:54:35.017Z,84.76
2022-09-06T09:57:03.007Z,81.37
2022-09-06T09:59:44.402Z,84.06
2022-09-06T10:02:41.556Z,84.98
2022-09-06T10:05:20.168Z,85.73
2022-09-06T10:07:52.829Z,80.96
2022-09-06T10:10:25.349Z,84.25
2022-09-06T10:13:26.609Z,85.40
2022-09-06T10:15:54.541Z,83.32
2022-09-06T10:18:21.154Z,79.59
2022-09-06T10:20:56.728Z,79.44
2022-09-06T10:26:45.986Z,71.93
2022-09-06T10:29:14.334Z,75.05
2022-09-06T10:32:19.259Z,75.53
2022-09-06T10:34:54.171Z,78.06
2022-09-06T10:37:28.923Z,76.75
2022-09-06T10:40:02.806Z,76.99
2022-09-06T10:42:42.440Z,71.01
2022-09-06T10:45:27.809Z,69.25
2022-09-06T10:48:01.579Z,66.51
2022-09-06T10:50:56.087Z,68.22
2022-09-06T10:53:46.503Z,67.98
2022-09-06T10:56:20.994Z,72.56
2022-09-06T11:02:18.465Z,76.51
2022-09-06T11:10:45.367Z,72.28
2022-09-06T11:13:22.982Z,70.53
2022-09-06T11:16:01.574Z,69.67
2022-09-06T11:18:41.699Z,70.76
2022-09-06T11:21:30.777Z,69.70
2022-09-06T11:24:37.078Z,68.52
2022-09-06T11:27:25.190Z,65.19
2022-09-06T11:29:56.308Z,68.84
2022-09-06T11:32:44.788Z,65.75
2022-09-06T11:35:24.053Z,62.10
2022-09-06T11:38:01.760Z,60.22
2022-09-06T11:40:36.527Z,59.22
2022-09-06T11:43:03.753Z,59.55
2022-09-06T11:45:42.477Z,57.77
2022-09-06T11:48:24.132Z,56.83
2022-09-06T11:51:11.299Z,58.22
2022-09-06T11:53:50.188Z,57.46
2022-09-06T11:56:51.419Z,55.15
2022-09-06T11:59:21.580Z,56.63
2022-09-06T12:02:07.915Z,58.80
2022-09-06T12:05:07.204Z,55.68
2022-09-06T12:07:36.450Z,58.10
2022-09-06T12:10:29.119Z,55.86
2022-09-06T12:12:56.341Z,53.49
2022-09-06T12:15:28.217Z,53.78
2022-09-06T12:17:55.852Z,51.78
2022-09-06T12:20:54.293Z,52.53
2022-09-06T12:23:36.225Z,49.19
2022-09-06T12:26:06.883Z,47.19
2022-09-06T12:28:35.903Z,47.57
2022-09-06T12:31:42.276Z,47.24
2022-09-06T12:34:21.235Z,45.20
2022-09-06T12:37:01.352Z,45.03
2022-09-06T12:39:28.300Z,44.09
2022-09-06T12:42:07.348Z,46.29
2022-09-06T12:44:42.920Z,46.12
2022-09-06T12:47:20.469Z,48.36
2022-09-06T12:49:47.301Z,54.14
2022-09-06T12:52:16.443Z,53.65
2022-09-06T12:54:46.248Z,51.69
2022-09-06T12:57:33.189Z,52.86
2022-09-06T12:59:59.912Z,53.33
2022-09-06T13:02:43.506Z,52.24
2022-09-06T13:05:13.216Z,52.92
2022-09-06T13:07:45.193Z,51.20
2022-09-06T13:10:17.309Z,51.25
2022-09-06T13:12:46.722Z,49.90
2022-09-06T13:15:13.445Z,48.91
2022-09-06T13:17:40.363Z,49.59
2022-09-06T13:20:15.916Z,49.81
2022-09-06T13:22:45.504Z,48.73
2022-09-06T13:25:21.245Z,49.90
2022-09-06T13:27:50.970Z,50.62
2022-09-06T13:30:36.226Z,51.13
2022-09-06T13:33:06.004Z,52.08
2022-09-06T13:35:36.061Z,52.00
2022-09-06T13:38:21.224Z,55.23
2022-09-06T13:41:11.488Z,55.63
2022-09-06T13:43:44.951Z,55.17
2022-09-06T13:46:12.008Z,54.33
2022-09-06T13:48:44.263Z,53.73
2022-09-06T13:51:11.661Z,52.34
2022-09-06T13:53:38.447Z,51.60
2022-09-06T13:56:08.583Z,53.07
2022-09-06T13:58:36.362Z,53.47
2022-09-06T14:01:05.077Z,54.33
2022-09-06T14:03:32.831Z,54.99
2022-09-06T14:06:00.354Z,55.18
2022-09-06T14:08:38.845Z,54.26
2022-09-06T14:11:15.048Z,54.38
2022-09-06T14:13:41.851Z,54.38
2022-09-06T14:16:08.760Z,54.10
2022-09-06T14:18:36.253Z,54.98
2022-09-06T14:21:02.983Z,55.42
2022-09-06T14:23:29.656Z,55.70
2022-09-06T14:25:58.386Z,56.06
2022-09-06T14:28:25.762Z,55.70
2022-09-06T14:30:53.155Z,55.66
2022-09-06T14:33:21.488Z,55.23
2022-09-06T14:35:48.967Z,55.87
2022-09-06T14:38:15.999Z,53.61
2022-09-06T14:40:44.288Z,54.07
2022-09-06T14:43:11.119Z,55.64
2022-09-06T14:45:37.854Z,56.99
2022-09-06T14:48:04.711Z,57.88
2022-09-06T14:50:31.464Z,58.63
2022-09-06T14:52:58.619Z,57.42
2022-09-06T14:55:25.432Z,58.26
2022-09-06T14:57:52.380Z,62.00
2022-09-06T15:00:19.332Z,63.85
2022-09-06T15:02:46.080Z,63.84
2022-09-06T15:05:12.788Z,64.97
2022-09-06T15:07:39.472Z,64.37
2022-09-06T15:10:06.358Z,65.82
2022-09-06T15:12:33.233Z,66.88
2022-09-06T15:15:00.038Z,67.34
2022-09-06T15:17:26.751Z,67.62
2022-09-06T15:19:54.323Z,70.37
2022-09-06T15:22:21.035Z,76.35
2022-09-06T15:24:47.653Z,79.83
2022-09-06T15:27:14.332Z,80.56
2022-09-06T15:29:42.118Z,90.78
2022-09-06T15:32:08.875Z,94.22
2022-09-06T15:34:35.719Z,98.56
2022-09-06T15:37:02.462Z,100.00
2022-09-06T15:39:29.184Z,100.00
2022-09-06T15:41:57.113Z,100.00
2022-09-06T15:44:23.859Z,100.00
2022-09-06T15:46:53.958Z,100.00
2022-09-06T15:49:28.285Z,100.00
2022-09-06T15:52:01.032Z,100.00
2022-09-06T15:54:47.741Z,100.00
2022-09-06T15:57:16.513Z,100.00
2022-09-06T15:59:44.044Z,100.00
2022-09-06T16:02:11.445Z,100.00
2022-09-06T16:04:38.412Z,100.00
2022-09-06T16:07:05.794Z,100.00
2022-09-06T16:09:32.543Z,100.00
2022-09-06T16:11:59.415Z,100.00
2022-09-06T16:14:28.107Z,100.00
2022-09-06T16:16:54.963Z,100.00
2022-09-06T16:19:21.757Z,100.00
2022-09-06T16:21:49.182Z,100.00
2022-09-06T16:24:18.235Z,100.00
2022-09-06T16:26:46.620Z,100.00
2022-09-06T16:29:16.293Z,100.00
2022-09-06T16:31:43.095Z,100.00
2022-09-06T16:34:11.626Z,100.00
2022-09-06T16:36:38.566Z,100.00
2022-09-06T16:39:06.502Z,100.00
2022-09-06T16:41:42.546Z,100.00
2022-09-06T16:44:16.635Z,100.00
2022-09-06T16:46:45.876Z,100.00
2022-09-06T16:49:12.871Z,100.00
2022-09-06T16:51:39.626Z,100.00
2022-09-06T16:54:06.845Z,100.00
2022-09-06T16:56:35.831Z,100.00
2022-09-06T16:59:06.379Z,100.00
2022-09-06T17:01:35.113Z,100.00
2022-09-06T17:04:02.307Z,100.00
2022-09-06T17:06:29.875Z,100.00
2022-09-06T17:09:00.549Z,100.00
2022-09-06T17:11:29.480Z,100.00
2022-09-06T17:13:56.949Z,100.00
2022-09-06T17:16:43.134Z,100.00
2022-09-06T17:19:10.618Z,100.00
2022-09-06T17:21:39.088Z,100.00
2022-09-06T17:24:07.103Z,100.00
2022-09-06T17:26:36.151Z,100.00
2022-09-06T17:29:03.756Z,100.00
2022-09-06T17:31:30.627Z,100.00
2022-09-06T17:33:58.467Z,100.00
2022-09-06T17:36:30.976Z,100.00
2022-09-06T17:39:10.258Z,100.00
2022-09-06T17:41:43.089Z,100.00
2022-09-06T17:44:11.328Z,100.00
2022-09-06T17:46:47.694Z,100.00
2022-09-06T17:49:24.595Z,100.00
2022-09-06T17:51:52.115Z,100.00
2022-09-06T17:54:19.374Z,100.00
2022-09-06T17:56:46.196Z,100.00
2022-09-06T17:59:14.144Z,100.00
2022-09-06T18:01:42.643Z,100.00
2022-09-06T18:04:10.611Z,100.00
2022-09-06T18:06:40.854Z,100.00
2022-09-06T18:09:10.514Z,100.00
2022-09-06T18:11:39.769Z,100.00
2022-09-06T18:14:12.476Z,100.00
2022-09-06T18:16:40.375Z,100.00
2022-09-06T18:19:08.995Z,100.00
2022-09-06T18:21:38.973Z,100.00
2022-09-06T18:24:06.096Z,100.00
2022-09-06T18:26:33.156Z,100.00
2022-09-06T18:29:00.518Z,100.00
2022-09-06T18:31:28.012Z,100.00
2022-09-06T18:33:59.858Z,100.00
2022-09-06T18:36:31.772Z,100.00
2022-09-06T18:39:02.810Z,100.00
2022-09-06T18:41:48.359Z,100.00
2022-09-06T18:44:15.687Z,100.00
2022-09-06T18:46:42.701Z,100.00
2022-09-06T18:49:09.529Z,100.00
2022-09-06T18:51:39.542Z,100.00
2022-09-06T18:54:06.971Z,100.00
2022-09-06T18:56:33.774Z,100.00
2022-09-06T18:59:02.169Z,100.00
2022-09-06T19:01:30.240Z,100.00
2022-09-06T19:03:58.653Z,100.00
2022-09-06T19:06:27.265Z,100.00
2022-09-06T19:08:55.140Z,100.00
2022-09-06T19:11:22.415Z,100.00
2022-09-06T19:13:53.737Z,100.00
2022-09-06T19:16:21.458Z,100.00
2022-09-06T19:18:48.602Z,100.00
2022-09-06T19:21:17.882Z,100.00
2022-09-06T19:23:55.360Z,100.00
2022-09-06T19:26:22.850Z,100.00
2022-09-06T19:28:52.615Z,100.00
2022-09-06T19:31:19.872Z,100.00
2022-09-06T19:33:48.026Z,100.00
2022-09-06T19:36:15.833Z,100.00
2022-09-06T19:39:01.840Z,100.00
2022-09-06T19:41:30.685Z,100.00
2022-09-06T19:43:58.407Z,100.00
2022-09-06T19:46:26.797Z,100.00
2022-09-06T19:48:55.866Z,100.00
2022-09-06T19:51:23.170Z,100.00
2022-09-06T19:53:57.407Z,100.00
2022-09-06T19:56:26.555Z,100.00
2022-09-06T19:58:55.568Z,100.00
2022-09-06T20:01:23.373Z,100.00
2022-09-06T20:03:50.201Z,100.00
2022-09-06T20:06:16.979Z,100.00
2022-09-06T20:08:44.125Z,100.00
2022-09-06T20:11:12.734Z,100.00
2022-09-06T20:13:40.301Z,100.00
2022-09-06T20:16:08.909Z,100.00
2022-09-06T20:18:36.068Z,100.00
2022-09-06T20:21:02.890Z,100.00
2022-09-06T20:23:31.315Z,100.00
2022-09-06T20:26:00.691Z,100.00
2022-09-06T20:28:28.748Z,100.00
2022-09-06T20:31:04.833Z,100.00
2022-09-06T20:33:32.359Z,100.00
2022-09-06T20:36:03.911Z,100.00
2022-09-06T20:38:31.865Z,100.00
2022-09-06T20:41:04.775Z,100.00
2022-09-06T20:43:34.436Z,100.00
2022-09-06T20:46:04.239Z,100.00
2022-09-06T20:48:34.843Z,100.00
2022-09-06T20:51:06.866Z,100.00
2022-09-06T20:53:35.325Z,100.00
2022-09-06T20:56:06.919Z,100.00
2022-09-06T20:58:33.681Z,100.00
2022-09-06T21:01:06.480Z,100.00
2022-09-06T21:03:37.559Z,100.00
2022-09-06T21:06:05.785Z,100.00
2022-09-06T21:08:35.477Z,100.00
2022-09-06T21:11:06.660Z,100.00
2022-09-06T21:13:34.443Z,100.00
2022-09-06T21:16:01.827Z,100.00
2022-09-06T21:18:29.809Z,100.00
2022-09-06T21:21:02.216Z,100.00
2022-09-06T21:23:30.855Z,100.00
2022-09-06T21:26:03.057Z,100.00
2022-09-06T21:28:32.482Z,100.00
2022-09-06T21:31:01.771Z,100.00
2022-09-06T21:33:33.176Z,100.00
2022-09-06T21:36:11.549Z,100.00
2022-09-06T21:38:42.300Z,100.00
2022-09-06T21:41:10.375Z,100.00
2022-09-06T21:43:37.228Z,100.00
2022-09-06T21:46:15.294Z,100.00
2022-09-06T21:48:44.671Z,100.00
2022-09-06T21:51:16.377Z,100.00
2022-09-06T21:53:44.981Z,100.00
2022-09-06T21:56:12.539Z,100.00
2022-09-06T21:58:40.038Z,100.00
2022-09-06T22:01:07.733Z,100.00
2022-09-06T22:03:40.305Z,100.00
2022-09-06T22:06:22.305Z,100.00
2022-09-06T22:08:49.289Z,100.00
2022-09-06T22:11:18.936Z,100.00
2022-09-06T22:13:46.620Z,100.00
2022-09-06T22:16:15.162Z,100.00
2022-09-06T22:18:42.249Z,100.00
2022-09-06T22:21:11.423Z,100.00
2022-09-06T22:23:39.035Z,100.00
2022-09-06T22:26:10.860Z,100.00
2022-09-06T22:28:38.006Z,100.00
2022-09-06T22:31:05.370Z,100.00
2022-09-06T22:33:32.165Z,100.00
2022-09-06T22:36:01.816Z,100.00
2022-09-06T22:38:29.933Z,100.00
2022-09-06T22:40:57.567Z,100.00
2022-09-06T22:43:24.885Z,100.00
2022-09-06T22:45:52.241Z,100.00
2022-09-06T22:48:19.312Z,100.00
2022-09-06T22:50:46.421Z,100.00
2022-09-06T22:53:13.195Z,100.00
2022-09-06T22:55:39.867Z,100.00
2022-09-06T22:58:06.679Z,100.00
2022-09-06T23:00:36.092Z,100.00
2022-09-06T23:03:03.040Z,100.00
2022-09-06T23:05:31.395Z,100.00
2022-09-06T23:08:00.240Z,100.00
2022-09-06T23:10:30.047Z,100.00
2022-09-06T23:12:58.215Z,100.00
2022-09-06T23:15:26.051Z,100.00
2022-09-06T23:17:52.758Z,100.00
2022-09-06T23:20:19.529Z,100.00
2022-09-06T23:22:47.352Z,100.00
2022-09-06T23:25:14.093Z,100.00
2022-09-06T23:27:40.753Z,100.00
2022-09-06T23:30:08.280Z,100.00
2022-09-06T23:32:35.672Z,100.00
2022-09-06T23:35:02.373Z,100.00
2022-09-06T23:37:29.076Z,100.00
2022-09-06T23:39:55.798Z,100.00
2022-09-06T23:42:23.032Z,100.00
2022-09-06T23:44:51.222Z,100.00
2022-09-06T23:47:17.909Z,100.00
2022-09-06T23:49:45.436Z,100.00
2022-09-06T23:52:12.316Z,100.00
2022-09-06T23:54:38.992Z,100.00
2022-09-06T23:57:05.669Z,100.00
2022-09-06T23:59:32.458Z,100.00
